sensor_id;sensor_type;location;lat;lon;timestamp;P1;durP1;ratioP1;P2;durP2;ratioP2
11287;SDS011;5700;50.996;7.044;2022-10-16T00:02:02;5.53;;;2.28;;
11287;SDS011;5700;50.996;7.044;2022-10-16T00:05:05;4.38;;;2.30;;
11287;SDS011;5700;50.996;7.044;2022-10-16T00:08:07;3.63;;;1.90;;
11287;SDS011;5700;50.996;7.044;2022-10-16T00:11:09;4.47;;;2.03;;
11287;SDS011;5700;50.996;7.044;2022-10-16T00:14:12;5.28;;;2.40;;
11287;SDS011;5700;50.996;7.044;2022-10-16T00:17:15;4.82;;;2.33;;
11287;SDS011;5700;50.996;7.044;2022-10-16T00:20:17;3.90;;;2.10;;
11287;SDS011;5700;50.996;7.044;2022-10-16T00:23:19;3.83;;;1.80;;
11287;SDS011;5700;50.996;7.044;2022-10-16T00:26:21;4.32;;;2.55;;
11287;SDS011;5700;50.996;7.044;2022-10-16T00:29:22;3.85;;;1.90;;
11287;SDS011;5700;50.996;7.044;2022-10-16T00:32:24;2.95;;;1.52;;
11287;SDS011;5700;50.996;7.044;2022-10-16T00:35:26;3.75;;;1.73;;
11287;SDS011;5700;50.996;7.044;2022-10-16T00:38:29;4.32;;;1.92;;
11287;SDS011;5700;50.996;7.044;2022-10-16T00:41:30;5.85;;;1.80;;
11287;SDS011;5700;50.996;7.044;2022-10-16T00:47:51;2.58;;;1.65;;
11287;SDS011;5700;50.996;7.044;2022-10-16T00:50:54;11.35;;;2.35;;
11287;SDS011;5700;50.996;7.044;2022-10-16T00:53:57;4.82;;;2.15;;
11287;SDS011;5700;50.996;7.044;2022-10-16T00:56:59;6.18;;;1.88;;
11287;SDS011;5700;50.996;7.044;2022-10-16T01:00:06;8.73;;;2.63;;
11287;SDS011;5700;50.996;7.044;2022-10-16T01:03:21;5.47;;;2.00;;
11287;SDS011;5700;50.996;7.044;2022-10-16T01:06:27;5.45;;;1.88;;
11287;SDS011;5700;50.996;7.044;2022-10-16T01:09:34;7.97;;;2.25;;
11287;SDS011;5700;50.996;7.044;2022-10-16T01:12:40;2.97;;;1.83;;
11287;SDS011;5700;50.996;7.044;2022-10-16T01:15:45;6.63;;;2.50;;
11287;SDS011;5700;50.996;7.044;2022-10-16T01:18:49;5.15;;;2.03;;
11287;SDS011;5700;50.996;7.044;2022-10-16T01:21:56;7.15;;;2.03;;
11287;SDS011;5700;50.996;7.044;2022-10-16T01:24:58;2.97;;;1.70;;
11287;SDS011;5700;50.996;7.044;2022-10-16T01:28:03;6.60;;;1.95;;
11287;SDS011;5700;50.996;7.044;2022-10-16T01:31:05;3.08;;;1.70;;
11287;SDS011;5700;50.996;7.044;2022-10-16T01:34:08;5.03;;;1.98;;
11287;SDS011;5700;50.996;7.044;2022-10-16T01:37:14;6.25;;;1.67;;
11287;SDS011;5700;50.996;7.044;2022-10-16T01:40:17;7.18;;;2.10;;
11287;SDS011;5700;50.996;7.044;2022-10-16T01:43:22;4.07;;;1.67;;
11287;SDS011;5700;50.996;7.044;2022-10-16T01:46:28;3.90;;;1.85;;
11287;SDS011;5700;50.996;7.044;2022-10-16T01:49:31;2.78;;;1.65;;
11287;SDS011;5700;50.996;7.044;2022-10-16T01:52:35;7.13;;;1.90;;
11287;SDS011;5700;50.996;7.044;2022-10-16T01:55:39;6.38;;;1.83;;
11287;SDS011;5700;50.996;7.044;2022-10-16T01:58:47;3.97;;;1.70;;
11287;SDS011;5700;50.996;7.044;2022-10-16T02:01:52;4.38;;;1.52;;
11287;SDS011;5700;50.996;7.044;2022-10-16T02:04:57;10.68;;;2.40;;
11287;SDS011;5700;50.996;7.044;2022-10-16T02:08:00;8.05;;;1.75;;
11287;SDS011;5700;50.996;7.044;2022-10-16T02:11:01;3.00;;;1.80;;
11287;SDS011;5700;50.996;7.044;2022-10-16T02:14:05;4.70;;;2.00;;
11287;SDS011;5700;50.996;7.044;2022-10-16T02:17:11;3.13;;;1.63;;
11287;SDS011;5700;50.996;7.044;2022-10-16T02:20:13;4.53;;;1.52;;
11287;SDS011;5700;50.996;7.044;2022-10-16T02:23:16;3.33;;;1.75;;
11287;SDS011;5700;50.996;7.044;2022-10-16T02:26:22;3.63;;;1.50;;
11287;SDS011;5700;50.996;7.044;2022-10-16T02:29:28;3.88;;;1.45;;
11287;SDS011;5700;50.996;7.044;2022-10-16T02:32:30;5.07;;;1.67;;
11287;SDS011;5700;50.996;7.044;2022-10-16T02:35:32;2.28;;;1.58;;
11287;SDS011;5700;50.996;7.044;2022-10-16T02:38:34;2.90;;;1.45;;
11287;SDS011;5700;50.996;7.044;2022-10-16T02:41:37;3.83;;;1.58;;
11287;SDS011;5700;50.996;7.044;2022-10-16T02:44:40;4.10;;;1.70;;
11287;SDS011;5700;50.996;7.044;2022-10-16T02:47:41;3.13;;;2.05;;
11287;SDS011;5700;50.996;7.044;2022-10-16T02:50:43;3.60;;;1.75;;
11287;SDS011;5700;50.996;7.044;2022-10-16T02:53:44;2.55;;;1.48;;
11287;SDS011;5700;50.996;7.044;2022-10-16T02:56:45;6.40;;;1.70;;
11287;SDS011;5700;50.996;7.044;2022-10-16T02:59:48;3.58;;;1.70;;
11287;SDS011;5700;50.996;7.044;2022-10-16T03:02:49;3.08;;;1.42;;
11287;SDS011;5700;50.996;7.044;2022-10-16T03:05:51;6.15;;;1.50;;
11287;SDS011;5700;50.996;7.044;2022-10-16T03:08:52;2.55;;;1.30;;
11287;SDS011;5700;50.996;7.044;2022-10-16T03:11:54;6.78;;;1.40;;
11287;SDS011;5700;50.996;7.044;2022-10-16T03:14:57;1.95;;;1.50;;
11287;SDS011;5700;50.996;7.044;2022-10-16T03:17:59;2.92;;;1.33;;
11287;SDS011;5700;50.996;7.044;2022-10-16T03:21:00;2.53;;;1.50;;
11287;SDS011;5700;50.996;7.044;2022-10-16T03:24:02;4.13;;;1.70;;
11287;SDS011;5700;50.996;7.044;2022-10-16T03:27:03;5.15;;;1.38;;
11287;SDS011;5700;50.996;7.044;2022-10-16T03:30:07;2.38;;;1.15;;
11287;SDS011;5700;50.996;7.044;2022-10-16T03:33:09;4.07;;;1.60;;
11287;SDS011;5700;50.996;7.044;2022-10-16T03:36:10;3.08;;;1.75;;
11287;SDS011;5700;50.996;7.044;2022-10-16T03:39:12;5.07;;;1.60;;
11287;SDS011;5700;50.996;7.044;2022-10-16T03:42:13;3.20;;;1.40;;
11287;SDS011;5700;50.996;7.044;2022-10-16T03:45:16;2.67;;;1.50;;
11287;SDS011;5700;50.996;7.044;2022-10-16T03:48:17;4.55;;;1.20;;
11287;SDS011;5700;50.996;7.044;2022-10-16T03:51:19;2.38;;;1.30;;
11287;SDS011;5700;50.996;7.044;2022-10-16T03:54:20;1.80;;;1.40;;
11287;SDS011;5700;50.996;7.044;2022-10-16T03:57:22;6.00;;;1.63;;
11287;SDS011;5700;50.996;7.044;2022-10-16T04:00:26;6.15;;;1.45;;
11287;SDS011;5700;50.996;7.044;2022-10-16T04:03:27;3.28;;;1.30;;
11287;SDS011;5700;50.996;7.044;2022-10-16T04:06:29;4.57;;;1.50;;
11287;SDS011;5700;50.996;7.044;2022-10-16T04:09:30;3.35;;;1.48;;
11287;SDS011;5700;50.996;7.044;2022-10-16T04:12:32;1.80;;;1.27;;
11287;SDS011;5700;50.996;7.044;2022-10-16T04:15:34;2.42;;;1.30;;
11287;SDS011;5700;50.996;7.044;2022-10-16T04:18:36;6.47;;;1.67;;
11287;SDS011;5700;50.996;7.044;2022-10-16T04:21:37;3.28;;;1.52;;
11287;SDS011;5700;50.996;7.044;2022-10-16T04:24:39;6.03;;;1.40;;
11287;SDS011;5700;50.996;7.044;2022-10-16T04:27:41;2.35;;;1.50;;
11287;SDS011;5700;50.996;7.044;2022-10-16T04:30:43;3.25;;;1.80;;
11287;SDS011;5700;50.996;7.044;2022-10-16T04:33:45;4.13;;;1.30;;
11287;SDS011;5700;50.996;7.044;2022-10-16T04:36:47;1.95;;;1.42;;
11287;SDS011;5700;50.996;7.044;2022-10-16T04:39:49;2.58;;;1.58;;
11287;SDS011;5700;50.996;7.044;2022-10-16T04:42:50;4.10;;;1.40;;
11287;SDS011;5700;50.996;7.044;2022-10-16T04:45:53;3.15;;;1.50;;
11287;SDS011;5700;50.996;7.044;2022-10-16T04:48:54;3.72;;;1.58;;
11287;SDS011;5700;50.996;7.044;2022-10-16T04:51:56;3.10;;;1.30;;
11287;SDS011;5700;50.996;7.044;2022-10-16T04:54:57;6.60;;;1.80;;
11287;SDS011;5700;50.996;7.044;2022-10-16T04:58:01;1.42;;;1.30;;
11287;SDS011;5700;50.996;7.044;2022-10-16T05:01:04;2.33;;;1.38;;
11287;SDS011;5700;50.996;7.044;2022-10-16T05:04:11;4.32;;;1.58;;
11287;SDS011;5700;50.996;7.044;2022-10-16T05:07:14;2.78;;;1.17;;
11287;SDS011;5700;50.996;7.044;2022-10-16T05:10:16;3.72;;;1.42;;
11287;SDS011;5700;50.996;7.044;2022-10-16T05:13:18;1.38;;;1.10;;
11287;SDS011;5700;50.996;7.044;2022-10-16T05:16:20;2.00;;;1.45;;
11287;SDS011;5700;50.996;7.044;2022-10-16T05:19:22;3.95;;;1.40;;
11287;SDS011;5700;50.996;7.044;2022-10-16T05:22:23;1.75;;;1.40;;
11287;SDS011;5700;50.996;7.044;2022-10-16T05:25:25;4.55;;;1.10;;
11287;SDS011;5700;50.996;7.044;2022-10-16T05:28:26;2.40;;;1.23;;
11287;SDS011;5700;50.996;7.044;2022-10-16T05:31:29;2.83;;;1.40;;
11287;SDS011;5700;50.996;7.044;2022-10-16T05:34:31;2.85;;;1.35;;
11287;SDS011;5700;50.996;7.044;2022-10-16T05:37:32;4.05;;;1.38;;
11287;SDS011;5700;50.996;7.044;2022-10-16T05:40:34;7.10;;;1.33;;
11287;SDS011;5700;50.996;7.044;2022-10-16T05:43:35;4.03;;;1.55;;
11287;SDS011;5700;50.996;7.044;2022-10-16T05:46:38;1.98;;;1.33;;
11287;SDS011;5700;50.996;7.044;2022-10-16T05:49:39;4.32;;;1.70;;
11287;SDS011;5700;50.996;7.044;2022-10-16T05:52:41;1.48;;;1.20;;
11287;SDS011;5700;50.996;7.044;2022-10-16T05:55:42;4.10;;;1.83;;
11287;SDS011;5700;50.996;7.044;2022-10-16T05:58:44;2.33;;;1.42;;
11287;SDS011;5700;50.996;7.044;2022-10-16T06:01:47;2.53;;;1.40;;
11287;SDS011;5700;50.996;7.044;2022-10-16T06:04:49;2.00;;;1.08;;
11287;SDS011;5700;50.996;7.044;2022-10-16T06:07:50;3.80;;;1.48;;
11287;SDS011;5700;50.996;7.044;2022-10-16T06:10:59;3.97;;;1.23;;
11287;SDS011;5700;50.996;7.044;2022-10-16T06:14:02;6.05;;;1.40;;
11287;SDS011;5700;50.996;7.044;2022-10-16T06:17:08;1.83;;;1.20;;
11287;SDS011;5700;50.996;7.044;2022-10-16T06:20:09;2.47;;;1.40;;
11287;SDS011;5700;50.996;7.044;2022-10-16T06:23:11;2.40;;;1.48;;
11287;SDS011;5700;50.996;7.044;2022-10-16T06:26:13;7.40;;;1.55;;
11287;SDS011;5700;50.996;7.044;2022-10-16T06:29:15;2.03;;;1.20;;
11287;SDS011;5700;50.996;7.044;2022-10-16T06:32:17;2.95;;;1.70;;
11287;SDS011;5700;50.996;7.044;2022-10-16T06:35:19;3.90;;;1.77;;
11287;SDS011;5700;50.996;7.044;2022-10-16T06:38:20;4.15;;;1.42;;
11287;SDS011;5700;50.996;7.044;2022-10-16T06:41:22;3.92;;;1.45;;
11287;SDS011;5700;50.996;7.044;2022-10-16T06:44:24;2.92;;;1.60;;
11287;SDS011;5700;50.996;7.044;2022-10-16T06:47:27;3.85;;;1.50;;
11287;SDS011;5700;50.996;7.044;2022-10-16T06:50:28;3.22;;;1.42;;
11287;SDS011;5700;50.996;7.044;2022-10-16T06:53:30;5.68;;;1.63;;
11287;SDS011;5700;50.996;7.044;2022-10-16T06:56:32;3.45;;;1.33;;
11287;SDS011;5700;50.996;7.044;2022-10-16T06:59:34;3.83;;;1.52;;
11287;SDS011;5700;50.996;7.044;2022-10-16T07:02:37;2.90;;;1.40;;
11287;SDS011;5700;50.996;7.044;2022-10-16T07:05:39;3.55;;;1.33;;
11287;SDS011;5700;50.996;7.044;2022-10-16T07:08:41;2.97;;;1.33;;
11287;SDS011;5700;50.996;7.044;2022-10-16T07:11:43;1.60;;;1.50;;
11287;SDS011;5700;50.996;7.044;2022-10-16T07:14:44;2.25;;;1.50;;
11287;SDS011;5700;50.996;7.044;2022-10-16T07:17:47;2.03;;;1.20;;
11287;SDS011;5700;50.996;7.044;2022-10-16T07:20:48;3.25;;;1.83;;
11287;SDS011;5700;50.996;7.044;2022-10-16T07:23:50;2.40;;;1.67;;
11287;SDS011;5700;50.996;7.044;2022-10-16T07:26:51;2.20;;;1.50;;
11287;SDS011;5700;50.996;7.044;2022-10-16T07:29:53;3.33;;;1.70;;
11287;SDS011;5700;50.996;7.044;2022-10-16T07:32:56;2.20;;;1.60;;
11287;SDS011;5700;50.996;7.044;2022-10-16T07:35:57;2.38;;;1.63;;
11287;SDS011;5700;50.996;7.044;2022-10-16T07:38:58;2.65;;;1.30;;
11287;SDS011;5700;50.996;7.044;2022-10-16T07:42:00;2.95;;;1.73;;
11287;SDS011;5700;50.996;7.044;2022-10-16T07:45:01;1.77;;;1.23;;
11287;SDS011;5700;50.996;7.044;2022-10-16T07:48:04;3.20;;;1.50;;
11287;SDS011;5700;50.996;7.044;2022-10-16T07:51:06;1.98;;;1.42;;
11287;SDS011;5700;50.996;7.044;2022-10-16T07:54:08;4.90;;;1.50;;
11287;SDS011;5700;50.996;7.044;2022-10-16T07:57:09;2.65;;;1.13;;
11287;SDS011;5700;50.996;7.044;2022-10-16T08:00:11;2.08;;;1.42;;
11287;SDS011;5700;50.996;7.044;2022-10-16T08:03:15;1.70;;;1.50;;
11287;SDS011;5700;50.996;7.044;2022-10-16T08:06:17;3.05;;;1.60;;
11287;SDS011;5700;50.996;7.044;2022-10-16T08:09:18;2.28;;;1.42;;
11287;SDS011;5700;50.996;7.044;2022-10-16T08:12:20;5.38;;;1.00;;
11287;SDS011;5700;50.996;7.044;2022-10-16T08:15:21;2.13;;;1.30;;
11287;SDS011;5700;50.996;7.044;2022-10-16T08:18:24;2.80;;;1.55;;
11287;SDS011;5700;50.996;7.044;2022-10-16T08:21:26;3.05;;;1.30;;
11287;SDS011;5700;50.996;7.044;2022-10-16T08:24:27;2.53;;;1.48;;
11287;SDS011;5700;50.996;7.044;2022-10-16T08:27:31;1.35;;;1.17;;
11287;SDS011;5700;50.996;7.044;2022-10-16T08:30:32;2.83;;;1.20;;
11287;SDS011;5700;50.996;7.044;2022-10-16T08:33:36;3.10;;;1.10;;
11287;SDS011;5700;50.996;7.044;2022-10-16T08:36:39;1.05;;;0.90;;
11287;SDS011;5700;50.996;7.044;2022-10-16T08:39:41;1.35;;;0.88;;
11287;SDS011;5700;50.996;7.044;2022-10-16T08:42:46;2.95;;;0.80;;
11287;SDS011;5700;50.996;7.044;2022-10-16T08:46:02;1.58;;;0.80;;
11287;SDS011;5700;50.996;7.044;2022-10-16T08:49:12;0.80;;;0.80;;
11287;SDS011;5700;50.996;7.044;2022-10-16T08:52:14;2.38;;;1.02;;
11287;SDS011;5700;50.996;7.044;2022-10-16T08:55:18;1.83;;;0.80;;
11287;SDS011;5700;50.996;7.044;2022-10-16T08:58:29;2.40;;;1.17;;
11287;SDS011;5700;50.996;7.044;2022-10-16T09:01:34;1.35;;;1.05;;
11287;SDS011;5700;50.996;7.044;2022-10-16T09:08:01;0.75;;;0.70;;
11287;SDS011;5700;50.996;7.044;2022-10-16T09:11:07;0.90;;;0.63;;
11287;SDS011;5700;50.996;7.044;2022-10-16T09:14:17;1.35;;;0.50;;
11287;SDS011;5700;50.996;7.044;2022-10-16T09:17:34;3.10;;;0.73;;
11287;SDS011;5700;50.996;7.044;2022-10-16T09:20:44;0.63;;;0.50;;
11287;SDS011;5700;50.996;7.044;2022-10-16T09:23:51;0.50;;;0.50;;
11287;SDS011;5700;50.996;7.044;2022-10-16T09:26:52;2.95;;;0.47;;
11287;SDS011;5700;50.996;7.044;2022-10-16T09:29:54;0.90;;;0.52;;
11287;SDS011;5700;50.996;7.044;2022-10-16T09:32:55;1.33;;;0.45;;
11287;SDS011;5700;50.996;7.044;2022-10-16T09:36:00;0.93;;;0.50;;
11287;SDS011;5700;50.996;7.044;2022-10-16T09:39:04;0.28;;;0.28;;
11287;SDS011;5700;50.996;7.044;2022-10-16T09:42:06;0.82;;;0.50;;
11287;SDS011;5700;50.996;7.044;2022-10-16T09:45:19;1.15;;;0.40;;
11287;SDS011;5700;50.996;7.044;2022-10-16T09:48:22;1.02;;;0.50;;
11287;SDS011;5700;50.996;7.044;2022-10-16T09:51:26;0.52;;;0.40;;
11287;SDS011;5700;50.996;7.044;2022-10-16T09:54:28;2.47;;;0.60;;
11287;SDS011;5700;50.996;7.044;2022-10-16T09:57:30;0.65;;;0.65;;
11287;SDS011;5700;50.996;7.044;2022-10-16T10:00:31;1.20;;;0.38;;
11287;SDS011;5700;50.996;7.044;2022-10-16T10:03:36;2.33;;;0.50;;
11287;SDS011;5700;50.996;7.044;2022-10-16T10:06:42;1.92;;;0.40;;
11287;SDS011;5700;50.996;7.044;2022-10-16T10:09:47;1.15;;;0.50;;
11287;SDS011;5700;50.996;7.044;2022-10-16T10:12:49;2.30;;;0.55;;
11287;SDS011;5700;50.996;7.044;2022-10-16T10:15:50;0.85;;;0.50;;
11287;SDS011;5700;50.996;7.044;2022-10-16T10:18:57;0.82;;;0.40;;
11287;SDS011;5700;50.996;7.044;2022-10-16T10:22:00;1.58;;;0.60;;
11287;SDS011;5700;50.996;7.044;2022-10-16T10:28:41;1.90;;;0.63;;
11287;SDS011;5700;50.996;7.044;2022-10-16T10:31:50;1.27;;;0.40;;
11287;SDS011;5700;50.996;7.044;2022-10-16T10:35:03;0.70;;;0.40;;
11287;SDS011;5700;50.996;7.044;2022-10-16T10:38:20;1.52;;;0.57;;
11287;SDS011;5700;50.996;7.044;2022-10-16T10:41:32;0.88;;;0.40;;
11287;SDS011;5700;50.996;7.044;2022-10-16T10:44:49;1.98;;;0.60;;
11287;SDS011;5700;50.996;7.044;2022-10-16T10:47:59;0.65;;;0.30;;
11287;SDS011;5700;50.996;7.044;2022-10-16T10:51:07;1.00;;;0.50;;
11287;SDS011;5700;50.996;7.044;2022-10-16T10:54:14;0.30;;;0.30;;
11287;SDS011;5700;50.996;7.044;2022-10-16T10:57:22;0.98;;;0.30;;
11287;SDS011;5700;50.996;7.044;2022-10-16T11:00:30;2.50;;;0.43;;
11287;SDS011;5700;50.996;7.044;2022-10-16T11:03:39;2.47;;;0.50;;
11287;SDS011;5700;50.996;7.044;2022-10-16T11:06:48;1.38;;;0.30;;
11287;SDS011;5700;50.996;7.044;2022-10-16T11:09:53;1.15;;;0.50;;
11287;SDS011;5700;50.996;7.044;2022-10-16T11:12:59;0.70;;;0.40;;
11287;SDS011;5700;50.996;7.044;2022-10-16T11:16:08;1.05;;;0.40;;
11287;SDS011;5700;50.996;7.044;2022-10-16T11:19:14;1.77;;;0.50;;
11287;SDS011;5700;50.996;7.044;2022-10-16T11:22:24;0.55;;;0.35;;
11287;SDS011;5700;50.996;7.044;2022-10-16T11:25:30;0.43;;;0.40;;
11287;SDS011;5700;50.996;7.044;2022-10-16T11:28:33;1.38;;;0.30;;
11287;SDS011;5700;50.996;7.044;2022-10-16T11:31:37;0.68;;;0.38;;
11287;SDS011;5700;50.996;7.044;2022-10-16T11:34:41;1.38;;;0.40;;
11287;SDS011;5700;50.996;7.044;2022-10-16T11:37:48;0.75;;;0.40;;
11287;SDS011;5700;50.996;7.044;2022-10-16T11:40:53;0.90;;;0.43;;
11287;SDS011;5700;50.996;7.044;2022-10-16T11:44:01;1.20;;;0.38;;
11287;SDS011;5700;50.996;7.044;2022-10-16T11:47:13;2.03;;;0.82;;
11287;SDS011;5700;50.996;7.044;2022-10-16T11:50:22;3.25;;;0.52;;
11287;SDS011;5700;50.996;7.044;2022-10-16T11:53:35;1.27;;;0.32;;
11287;SDS011;5700;50.996;7.044;2022-10-16T11:56:42;0.75;;;0.50;;
11287;SDS011;5700;50.996;7.044;2022-10-16T11:59:45;0.70;;;0.32;;
11287;SDS011;5700;50.996;7.044;2022-10-16T12:02:51;0.17;;;0.17;;
11287;SDS011;5700;50.996;7.044;2022-10-16T12:06:00;0.68;;;0.35;;
11287;SDS011;5700;50.996;7.044;2022-10-16T12:09:09;5.65;;;0.65;;
11287;SDS011;5700;50.996;7.044;2022-10-16T12:15:40;0.90;;;0.40;;
11287;SDS011;5700;50.996;7.044;2022-10-16T12:18:42;1.52;;;0.30;;
11287;SDS011;5700;50.996;7.044;2022-10-16T12:21:44;0.25;;;0.20;;
11287;SDS011;5700;50.996;7.044;2022-10-16T12:24:46;0.63;;;0.30;;
11287;SDS011;5700;50.996;7.044;2022-10-16T12:27:57;0.93;;;0.45;;
11287;SDS011;5700;50.996;7.044;2022-10-16T12:31:01;1.45;;;0.38;;
11287;SDS011;5700;50.996;7.044;2022-10-16T12:34:04;3.97;;;0.40;;
11287;SDS011;5700;50.996;7.044;2022-10-16T12:37:08;1.20;;;0.30;;
11287;SDS011;5700;50.996;7.044;2022-10-16T12:40:12;1.90;;;0.50;;
11287;SDS011;5700;50.996;7.044;2022-10-16T12:46:42;4.20;;;0.30;;
11287;SDS011;5700;50.996;7.044;2022-10-16T12:49:52;0.32;;;0.30;;
11287;SDS011;5700;50.996;7.044;2022-10-16T12:52:54;3.33;;;0.40;;
11287;SDS011;5700;50.996;7.044;2022-10-16T12:55:58;2.70;;;0.40;;
11287;SDS011;5700;50.996;7.044;2022-10-16T12:59:08;0.88;;;0.30;;
11287;SDS011;5700;50.996;7.044;2022-10-16T13:02:20;2.28;;;0.20;;
11287;SDS011;5700;50.996;7.044;2022-10-16T13:05:38;2.15;;;0.22;;
11287;SDS011;5700;50.996;7.044;2022-10-16T13:08:53;0.88;;;0.38;;
11287;SDS011;5700;50.996;7.044;2022-10-16T13:12:07;2.67;;;0.60;;
11287;SDS011;5700;50.996;7.044;2022-10-16T13:15:27;1.77;;;0.40;;
11287;SDS011;5700;50.996;7.044;2022-10-16T13:18:38;0.93;;;0.43;;
11287;SDS011;5700;50.996;7.044;2022-10-16T13:21:46;2.17;;;0.40;;
11287;SDS011;5700;50.996;7.044;2022-10-16T13:24:53;1.25;;;0.30;;
11287;SDS011;5700;50.996;7.044;2022-10-16T13:28:01;0.30;;;0.30;;
11287;SDS011;5700;50.996;7.044;2022-10-16T13:31:05;3.95;;;0.55;;
11287;SDS011;5700;50.996;7.044;2022-10-16T13:34:15;0.77;;;0.30;;
11287;SDS011;5700;50.996;7.044;2022-10-16T13:37:19;0.98;;;0.60;;
11287;SDS011;5700;50.996;7.044;2022-10-16T13:40:22;1.63;;;0.30;;
11287;SDS011;5700;50.996;7.044;2022-10-16T13:43:26;2.72;;;0.40;;
11287;SDS011;5700;50.996;7.044;2022-10-16T13:46:30;0.40;;;0.40;;
11287;SDS011;5700;50.996;7.044;2022-10-16T13:49:34;0.65;;;0.30;;
11287;SDS011;5700;50.996;7.044;2022-10-16T13:52:35;0.22;;;0.22;;
11287;SDS011;5700;50.996;7.044;2022-10-16T13:55:38;0.40;;;0.40;;
11287;SDS011;5700;50.996;7.044;2022-10-16T13:58:39;1.88;;;0.40;;
11287;SDS011;5700;50.996;7.044;2022-10-16T14:01:43;2.80;;;0.43;;
11287;SDS011;5700;50.996;7.044;2022-10-16T14:04:44;1.95;;;0.40;;
11287;SDS011;5700;50.996;7.044;2022-10-16T14:07:47;0.73;;;0.32;;
11287;SDS011;5700;50.996;7.044;2022-10-16T14:10:51;0.30;;;0.25;;
11287;SDS011;5700;50.996;7.044;2022-10-16T14:13:54;1.48;;;0.30;;
11287;SDS011;5700;50.996;7.044;2022-10-16T14:16:57;1.10;;;0.40;;
11287;SDS011;5700;50.996;7.044;2022-10-16T14:19:59;0.77;;;0.28;;
11287;SDS011;5700;50.996;7.044;2022-10-16T14:23:02;0.88;;;0.30;;
11287;SDS011;5700;50.996;7.044;2022-10-16T14:26:05;0.55;;;0.35;;
11287;SDS011;5700;50.996;7.044;2022-10-16T14:29:10;2.60;;;0.40;;
11287;SDS011;5700;50.996;7.044;2022-10-16T14:32:22;0.73;;;0.30;;
11287;SDS011;5700;50.996;7.044;2022-10-16T14:35:25;1.35;;;0.40;;
11287;SDS011;5700;50.996;7.044;2022-10-16T14:38:28;0.70;;;0.28;;
11287;SDS011;5700;50.996;7.044;2022-10-16T14:41:31;1.83;;;0.60;;
11287;SDS011;5700;50.996;7.044;2022-10-16T14:44:34;2.35;;;0.80;;
11287;SDS011;5700;50.996;7.044;2022-10-16T14:47:37;2.05;;;0.68;;
11287;SDS011;5700;50.996;7.044;2022-10-16T14:50:49;0.43;;;0.32;;
11287;SDS011;5700;50.996;7.044;2022-10-16T14:53:50;2.47;;;0.65;;
11287;SDS011;5700;50.996;7.044;2022-10-16T14:56:52;1.58;;;0.35;;
11287;SDS011;5700;50.996;7.044;2022-10-16T14:59:54;0.73;;;0.50;;
11287;SDS011;5700;50.996;7.044;2022-10-16T15:02:57;1.25;;;0.70;;
11287;SDS011;5700;50.996;7.044;2022-10-16T15:05:58;1.10;;;0.40;;
11287;SDS011;5700;50.996;7.044;2022-10-16T15:09:00;0.85;;;0.25;;
11287;SDS011;5700;50.996;7.044;2022-10-16T15:12:01;1.52;;;0.47;;
11287;SDS011;5700;50.996;7.044;2022-10-16T15:15:09;0.50;;;0.40;;
11287;SDS011;5700;50.996;7.044;2022-10-16T15:18:30;2.53;;;0.45;;
11287;SDS011;5700;50.996;7.044;2022-10-16T15:21:32;0.35;;;0.28;;
11287;SDS011;5700;50.996;7.044;2022-10-16T15:24:33;1.15;;;0.40;;
11287;SDS011;5700;50.996;7.044;2022-10-16T15:27:35;0.98;;;0.40;;
11287;SDS011;5700;50.996;7.044;2022-10-16T15:30:40;0.32;;;0.30;;
11287;SDS011;5700;50.996;7.044;2022-10-16T15:33:43;4.28;;;0.50;;
11287;SDS011;5700;50.996;7.044;2022-10-16T15:36:47;2.25;;;0.60;;
11287;SDS011;5700;50.996;7.044;2022-10-16T15:39:49;4.78;;;0.70;;
11287;SDS011;5700;50.996;7.044;2022-10-16T15:42:51;3.90;;;1.10;;
11287;SDS011;5700;50.996;7.044;2022-10-16T15:45:58;4.13;;;0.65;;
11287;SDS011;5700;50.996;7.044;2022-10-16T15:49:02;2.13;;;0.60;;
11287;SDS011;5700;50.996;7.044;2022-10-16T15:52:04;0.32;;;0.32;;
11287;SDS011;5700;50.996;7.044;2022-10-16T15:55:06;1.52;;;0.57;;
11287;SDS011;5700;50.996;7.044;2022-10-16T15:58:07;2.65;;;1.30;;
11287;SDS011;5700;50.996;7.044;2022-10-16T16:01:09;1.35;;;0.68;;
11287;SDS011;5700;50.996;7.044;2022-10-16T16:04:12;2.38;;;0.52;;
11287;SDS011;5700;50.996;7.044;2022-10-16T16:07:14;10.63;;;0.90;;
11287;SDS011;5700;50.996;7.044;2022-10-16T16:10:16;6.05;;;0.70;;
11287;SDS011;5700;50.996;7.044;2022-10-16T16:13:18;2.03;;;0.60;;
11287;SDS011;5700;50.996;7.044;2022-10-16T16:16:19;1.00;;;0.57;;
11287;SDS011;5700;50.996;7.044;2022-10-16T16:19:22;1.95;;;0.52;;
11287;SDS011;5700;50.996;7.044;2022-10-16T16:22:23;2.38;;;0.60;;
11287;SDS011;5700;50.996;7.044;2022-10-16T16:25:25;2.08;;;0.63;;
11287;SDS011;5700;50.996;7.044;2022-10-16T16:28:26;1.10;;;0.50;;
11287;SDS011;5700;50.996;7.044;2022-10-16T16:31:28;0.50;;;0.50;;
11287;SDS011;5700;50.996;7.044;2022-10-16T16:34:32;0.93;;;0.70;;
11287;SDS011;5700;50.996;7.044;2022-10-16T16:37:33;0.60;;;0.60;;
11287;SDS011;5700;50.996;7.044;2022-10-16T16:40:35;1.75;;;0.50;;
11287;SDS011;5700;50.996;7.044;2022-10-16T16:43:36;6.63;;;0.98;;
11287;SDS011;5700;50.996;7.044;2022-10-16T16:46:37;4.55;;;0.90;;
11287;SDS011;5700;50.996;7.044;2022-10-16T16:49:41;1.63;;;0.60;;
11287;SDS011;5700;50.996;7.044;2022-10-16T16:52:42;1.30;;;0.85;;
11287;SDS011;5700;50.996;7.044;2022-10-16T16:55:44;2.35;;;0.65;;
11287;SDS011;5700;50.996;7.044;2022-10-16T16:58:45;1.55;;;0.70;;
11287;SDS011;5700;50.996;7.044;2022-10-16T17:01:47;1.30;;;0.70;;
11287;SDS011;5700;50.996;7.044;2022-10-16T17:04:50;2.10;;;0.70;;
11287;SDS011;5700;50.996;7.044;2022-10-16T17:07:52;6.35;;;0.73;;
11287;SDS011;5700;50.996;7.044;2022-10-16T17:10:53;1.67;;;0.63;;
11287;SDS011;5700;50.996;7.044;2022-10-16T17:13:56;3.63;;;0.80;;
11287;SDS011;5700;50.996;7.044;2022-10-16T17:16:58;2.35;;;0.95;;
11287;SDS011;5700;50.996;7.044;2022-10-16T17:20:01;1.55;;;0.73;;
11287;SDS011;5700;50.996;7.044;2022-10-16T17:23:03;2.00;;;0.90;;
11287;SDS011;5700;50.996;7.044;2022-10-16T17:26:05;0.75;;;0.60;;
11287;SDS011;5700;50.996;7.044;2022-10-16T17:29:09;1.63;;;1.17;;
11287;SDS011;5700;50.996;7.044;2022-10-16T17:32:12;0.77;;;0.63;;
11287;SDS011;5700;50.996;7.044;2022-10-16T17:35:14;2.28;;;0.80;;
11287;SDS011;5700;50.996;7.044;2022-10-16T17:38:16;5.82;;;0.93;;
11287;SDS011;5700;50.996;7.044;2022-10-16T17:41:19;3.33;;;0.73;;
11287;SDS011;5700;50.996;7.044;2022-10-16T17:44:22;1.50;;;0.70;;
11287;SDS011;5700;50.996;7.044;2022-10-16T17:47:23;0.98;;;0.65;;
11287;SDS011;5700;50.996;7.044;2022-10-16T17:50:26;1.63;;;0.77;;
11287;SDS011;5700;50.996;7.044;2022-10-16T17:53:27;2.05;;;0.80;;
11287;SDS011;5700;50.996;7.044;2022-10-16T17:56:29;7.13;;;0.85;;
11287;SDS011;5700;50.996;7.044;2022-10-16T17:59:31;1.95;;;0.95;;
11287;SDS011;5700;50.996;7.044;2022-10-16T18:02:32;1.65;;;0.80;;
11287;SDS011;5700;50.996;7.044;2022-10-16T18:05:37;1.40;;;0.75;;
11287;SDS011;5700;50.996;7.044;2022-10-16T18:08:39;1.38;;;0.60;;
11287;SDS011;5700;50.996;7.044;2022-10-16T18:11:40;5.93;;;0.80;;
11287;SDS011;5700;50.996;7.044;2022-10-16T18:14:42;3.03;;;0.90;;
11287;SDS011;5700;50.996;7.044;2022-10-16T18:17:43;1.55;;;0.73;;
11287;SDS011;5700;50.996;7.044;2022-10-16T18:20:47;1.92;;;0.85;;
11287;SDS011;5700;50.996;7.044;2022-10-16T18:23:57;1.70;;;0.80;;
11287;SDS011;5700;50.996;7.044;2022-10-16T18:26:59;8.50;;;1.10;;
11287;SDS011;5700;50.996;7.044;2022-10-16T18:30:00;3.65;;;0.90;;
11287;SDS011;5700;50.996;7.044;2022-10-16T18:33:01;3.65;;;1.05;;
11287;SDS011;5700;50.996;7.044;2022-10-16T18:36:05;5.10;;;0.90;;
11287;SDS011;5700;50.996;7.044;2022-10-16T18:39:08;3.13;;;1.13;;
11287;SDS011;5700;50.996;7.044;2022-10-16T18:42:10;2.50;;;0.70;;
11287;SDS011;5700;50.996;7.044;2022-10-16T18:45:12;5.57;;;1.08;;
11287;SDS011;5700;50.996;7.044;2022-10-16T18:48:13;7.47;;;1.10;;
11287;SDS011;5700;50.996;7.044;2022-10-16T18:51:17;4.35;;;1.10;;
11287;SDS011;5700;50.996;7.044;2022-10-16T18:54:19;2.97;;;0.70;;
11287;SDS011;5700;50.996;7.044;2022-10-16T18:57:21;1.48;;;1.05;;
11287;SDS011;5700;50.996;7.044;2022-10-16T19:00:22;1.85;;;0.90;;